Time;durP1;ratioP1;P1;durP2;ratioP2;P2;SDS_P1;SDS_P2;PMS_P1;PMS_P2;Temp;Humidity;BMP_temperature;BMP_pressure;BME280_temperature;BME280_humidity;BME280_pressure;Samples;Min_cycle;Max_cycle;Signal;HPM_P1;HPM_P2
2023/05/29 00:01:38;;;;;;;18.90;7.75;;;;;;;13.96;100.00;102155.16;5224409;28;20025;-70
2023/05/29 00:04:08;;;;;;;18.98;7.47;;;;;;;13.95;100.00;102158.84;5223931;28;20453;-70
2023/05/29 00:06:39;;;;;;;15.88;7.47;;;;;;;13.92;100.00;102168.13;5223634;28;20064;-70
2023/05/29 00:09:09;;;;;;;22.40;7.82;;;;;;;13.91;100.00;102173.69;5222934;28;20017;-70
2023/05/29 00:11:40;;;;;;;15.88;7.72;;;;;;;13.84;100.00;102172.59;5223772;28;20035;-71
2023/05/29 00:14:13;;;;;;;24.30;7.68;;;;;;;13.79;100.00;102162.25;5224062;28;20039;-71
2023/05/29 00:16:44;;;;;;;18.85;8.02;;;;;;;13.77;100.00;102174.22;5223342;28;20458;-70
2023/05/29 00:22:02;;;;;;;20.85;8.27;;;;;;;13.69;100.00;102172.28;5230351;28;20028;-70
2023/05/29 00:24:33;;;;;;;24.83;8.60;;;;;;;13.65;100.00;102179.81;5244234;28;20029;-71
2023/05/29 00:27:04;;;;;;;18.40;7.68;;;;;;;13.58;100.00;102189.53;5228607;28;20025;-71
2023/05/29 00:29:35;;;;;;;20.13;8.43;;;;;;;13.56;100.00;102188.00;5224171;28;20029;-71
2023/05/29 00:32:06;;;;;;;21.73;7.80;;;;;;;13.53;100.00;102183.75;5224527;28;20035;-70
2023/05/29 00:34:36;;;;;;;18.23;7.82;;;;;;;13.46;100.00;102188.94;5205768;28;20021;-70
2023/05/29 00:37:07;;;;;;;23.25;8.88;;;;;;;13.39;100.00;102184.28;5223620;28;20482;-71
2023/05/29 00:39:37;;;;;;;23.90;8.23;;;;;;;13.35;100.00;102188.28;5223712;28;20029;-71
2023/05/29 00:42:08;;;;;;;18.65;8.48;;;;;;;13.31;100.00;102192.28;5224518;28;20032;-71
2023/05/29 00:44:39;;;;;;;19.92;8.77;;;;;;;13.31;100.00;102195.84;5218461;28;20024;-71
2023/05/29 00:47:10;;;;;;;20.52;8.77;;;;;;;13.25;100.00;102195.56;5227005;28;20485;-71
2023/05/29 00:49:41;;;;;;;19.38;8.38;;;;;;;13.23;100.00;102194.88;5229246;28;20025;-71
2023/05/29 00:52:12;;;;;;;20.85;8.20;;;;;;;13.20;100.00;102196.00;5223695;28;20501;-71
2023/05/29 00:54:45;;;;;;;17.20;8.23;;;;;;;13.15;100.00;102203.69;5225750;28;20021;-71
2023/05/29 00:57:16;;;;;;;19.95;8.77;;;;;;;13.08;100.00;102200.75;5233883;28;20067;-71
2023/05/29 00:59:47;;;;;;;22.27;8.57;;;;;;;13.05;100.00;102206.44;5223651;28;20104;-72
2023/05/29 01:02:19;;;;;;;20.10;8.50;;;;;;;13.02;100.00;102201.34;5223822;28;20113;-71
2023/05/29 01:04:54;;;;;;;24.77;8.60;;;;;;;12.96;100.00;102212.72;5224547;28;20027;-72
2023/05/29 01:07:33;;;;;;;18.10;7.93;;;;;;;12.92;100.00;102203.25;5224626;28;20252;-72
2023/05/29 01:10:13;;;;;;;21.08;9.68;;;;;;;12.90;100.00;102213.28;5224192;28;20228;-71
2023/05/29 01:12:50;;;;;;;25.08;8.45;;;;;;;12.84;100.00;102216.59;5225319;28;20028;-72
2023/05/29 01:15:51;;;;;;;23.35;8.85;;;;;;;12.80;100.00;102202.59;5223947;28;20017;-71
2023/05/29 01:18:39;;;;;;;21.65;8.25;;;;;;;12.77;100.00;102204.72;5223809;28;20371;-71
2023/05/29 01:21:59;;;;;;;23.48;8.13;;;;;;;12.67;100.00;102219.06;5229259;28;20052;-71
2023/05/29 01:25:06;;;;;;;25.70;8.88;;;;;;;12.62;100.00;102212.44;5234686;28;20041;-72
2023/05/29 01:27:39;;;;;;;18.67;8.13;;;;;;;12.53;100.00;102224.06;5247189;28;20028;-71
2023/05/29 01:30:32;;;;;;;16.20;7.78;;;;;;;12.59;100.00;102226.16;5232797;28;20055;-71
2023/05/29 01:33:03;;;;;;;16.73;7.20;;;;;;;12.56;100.00;102227.31;5247189;28;20087;-71
2023/05/29 01:35:34;;;;;;;22.95;7.93;;;;;;;12.59;100.00;102221.63;5247180;28;20500;-71
2023/05/29 01:38:05;;;;;;;15.40;7.30;;;;;;;12.51;100.00;102229.59;5247328;28;20622;-71
2023/05/29 01:40:35;;;;;;;28.55;7.93;;;;;;;12.57;100.00;102223.63;5247388;28;20073;-71
2023/05/29 01:43:07;;;;;;;24.05;7.88;;;;;;;12.58;100.00;102232.56;5247242;28;20024;-72
2023/05/29 01:45:38;;;;;;;23.63;7.45;;;;;;;12.55;100.00;102232.84;5246547;28;20568;-71
2023/05/29 01:48:10;;;;;;;20.40;7.18;;;;;;;12.48;100.00;102234.41;5244685;28;20086;-71
2023/05/29 01:50:43;;;;;;;25.77;7.55;;;;;;;12.46;100.00;102234.56;5238460;28;20557;-71
2023/05/29 01:53:14;;;;;;;15.20;6.57;;;;;;;12.42;100.00;102233.16;5227613;28;20016;-71
2023/05/29 01:55:46;;;;;;;24.17;7.20;;;;;;;12.33;100.00;102234.03;5226413;28;20025;-71
2023/05/29 01:58:17;;;;;;;19.05;6.85;;;;;;;12.29;100.00;102240.69;5231275;28;20024;-71
2023/05/29 02:00:49;;;;;;;15.40;5.95;;;;;;;12.23;100.00;102247.47;5245409;28;20037;-71
2023/05/29 02:03:19;;;;;;;15.73;5.88;;;;;;;12.14;100.00;102242.94;5241109;28;20374;-71
2023/05/29 02:05:51;;;;;;;29.83;6.45;;;;;;;12.08;100.00;102244.38;5226453;28;20081;-71
2023/05/29 02:08:22;;;;;;;19.75;6.82;;;;;;;12.05;100.00;102238.41;5227231;28;20016;-71
2023/05/29 02:10:53;;;;;;;16.27;5.30;;;;;;;11.98;100.00;102238.16;5226928;28;20033;-71
2023/05/29 02:13:24;;;;;;;20.60;5.80;;;;;;;11.92;100.00;102239.56;5234907;28;20020;-71
2023/05/29 02:15:55;;;;;;;20.90;5.00;;;;;;;11.90;100.00;102248.78;5231072;28;20498;-72
2023/05/29 02:18:26;;;;;;;21.05;5.20;;;;;;;11.86;100.00;102244.66;5235919;28;20028;-71
2023/05/29 02:20:57;;;;;;;18.40;4.97;;;;;;;11.85;100.00;102253.72;5232043;28;20039;-71
2023/05/29 02:23:27;;;;;;;14.25;4.10;;;;;;;11.81;100.00;102253.13;5244389;28;20029;-71
2023/05/29 02:25:58;;;;;;;25.48;5.35;;;;;;;11.78;100.00;102252.53;5245979;28;20024;-71
2023/05/29 02:28:28;;;;;;;20.05;4.95;;;;;;;11.77;100.00;102245.47;5246488;28;20028;-71
2023/05/29 02:30:59;;;;;;;14.90;4.22;;;;;;;11.68;100.00;102241.78;5245829;28;20478;-71
2023/05/29 02:33:29;;;;;;;19.52;4.28;;;;;;;11.64;100.00;102243.03;5245696;28;20023;-71
2023/05/29 02:36:00;;;;;;;17.75;3.95;;;;;;;11.64;100.00;102243.88;5245893;28;20063;-71
2023/05/29 02:38:30;;;;;;;17.67;3.92;;;;;;;11.58;100.00;102233.69;5246116;28;20395;-71
2023/05/29 02:41:01;;;;;;;15.98;4.43;;;;;;;11.54;100.00;102234.97;5246495;28;20028;-71
2023/05/29 02:43:31;;;;;;;23.23;4.90;;;;;;;11.50;100.00;102241.63;5246005;28;20024;-72
2023/05/29 02:46:02;;;;;;;17.63;3.75;;;;;;;11.45;100.00;102240.34;5245261;28;20024;-72
2023/05/29 02:48:33;;;;;;;13.95;3.40;;;;;;;11.35;100.00;102240.31;5228127;28;20043;-71
2023/05/29 02:51:03;;;;;;;17.58;4.18;;;;;;;11.31;100.00;102225.44;5233513;28;20368;-71
2023/05/29 02:53:34;;;;;;;20.35;3.80;;;;;;;11.29;100.00;102232.78;5226570;28;20017;-71
2023/05/29 02:56:05;;;;;;;23.33;4.15;;;;;;;11.27;100.00;102226.72;5225401;28;20029;-71
2023/05/29 02:58:36;;;;;;;18.17;4.40;;;;;;;11.24;100.00;102232.34;5225253;28;20030;-72
2023/05/29 03:01:07;;;;;;;13.85;3.97;;;;;;;11.19;100.00;102237.28;5225970;28;20029;-71
2023/05/29 03:03:38;;;;;;;17.48;3.58;;;;;;;11.15;100.00;102240.25;5225475;28;20178;-71
2023/05/29 03:06:09;;;;;;;16.25;3.70;;;;;;;11.11;100.00;102237.97;5225422;28;20032;-72
2023/05/29 03:08:40;;;;;;;13.48;3.88;;;;;;;11.04;100.00;102232.28;5225263;28;20025;-71
2023/05/29 03:11:11;;;;;;;16.63;3.90;;;;;;;11.00;100.00;102241.59;5225710;28;20502;-71
2023/05/29 03:13:42;;;;;;;16.65;3.42;;;;;;;10.96;100.00;102248.22;5224944;28;20143;-71
2023/05/29 03:16:12;;;;;;;15.10;3.97;;;;;;;10.93;100.00;102255.69;5230690;28;20537;-71
2023/05/29 03:18:43;;;;;;;20.48;3.95;;;;;;;10.91;100.00;102261.19;5232865;28;20109;-71
2023/05/29 03:21:13;;;;;;;27.95;3.72;;;;;;;10.87;100.00;102257.94;5224346;28;20371;-71
2023/05/29 03:23:44;;;;;;;18.65;3.63;;;;;;;10.86;100.00;102263.44;5237688;28;20072;-71
2023/05/29 03:26:15;;;;;;;23.45;3.88;;;;;;;10.83;100.00;102258.31;5224032;28;20028;-71
2023/05/29 03:28:46;;;;;;;14.73;3.58;;;;;;;10.82;100.00;102257.47;5239981;28;20108;-71
2023/05/29 03:31:16;;;;;;;16.48;4.60;;;;;;;10.79;100.00;102259.56;5244853;28;20051;-71
2023/05/29 03:33:48;;;;;;;19.98;3.70;;;;;;;10.75;100.00;102256.31;5240813;28;20536;-71
2023/05/29 03:36:18;;;;;;;16.27;4.05;;;;;;;10.71;100.00;102254.03;5234945;28;20489;-71
2023/05/29 03:38:49;;;;;;;26.33;3.85;;;;;;;10.70;100.00;102263.06;5244639;28;20052;-71
2023/05/29 03:41:20;;;;;;;15.93;3.83;;;;;;;10.71;100.00;102256.72;5244700;28;20074;-71
2023/05/29 03:43:50;;;;;;;16.65;3.10;;;;;;;10.70;100.00;102257.72;5244097;28;20086;-71
2023/05/29 03:46:21;;;;;;;16.65;3.58;;;;;;;10.67;100.00;102263.34;5243460;28;20025;-71
2023/05/29 03:48:51;;;;;;;18.35;4.25;;;;;;;10.63;100.00;102273.47;5244246;28;20036;-72
2023/05/29 03:51:22;;;;;;;14.05;3.25;;;;;;;10.57;100.00;102268.63;5244646;28;20028;-71
2023/05/29 03:53:53;;;;;;;14.15;3.83;;;;;;;10.56;100.00;102267.78;5244478;28;20044;-71
2023/05/29 03:56:23;;;;;;;20.65;3.92;;;;;;;10.65;100.00;102268.00;5243952;28;20020;-72
2023/05/29 03:58:54;;;;;;;13.23;3.30;;;;;;;10.63;100.00;102268.94;5244014;28;20034;-71
2023/05/29 04:01:25;;;;;;;15.15;3.30;;;;;;;10.62;100.00;102274.47;5244770;28;20512;-70
2023/05/29 04:03:56;;;;;;;22.58;3.58;;;;;;;10.63;100.00;102281.53;5244093;28;20036;-71
2023/05/29 04:06:26;;;;;;;21.27;3.60;;;;;;;10.58;100.00;102284.59;5243695;28;20020;-71
2023/05/29 04:08:57;;;;;;;14.43;3.92;;;;;;;10.60;100.00;102285.34;5244245;28;20028;-70
2023/05/29 04:11:27;;;;;;;23.92;3.40;;;;;;;10.62;100.00;102298.63;5243823;28;20093;-71
2023/05/29 04:13:58;;;;;;;17.25;3.78;;;;;;;10.61;100.00;102292.41;5231044;28;20025;-71
2023/05/29 04:16:28;;;;;;;18.73;3.22;;;;;;;10.62;100.00;102301.28;5235839;28;20029;-71
2023/05/29 04:18:59;;;;;;;17.52;3.55;;;;;;;10.63;100.00;102303.84;5238702;28;20469;-71
2023/05/29 04:21:32;;;;;;;15.52;3.55;;;;;;;10.63;100.00;102297.63;5243900;28;20024;-71
2023/05/29 04:24:03;;;;;;;16.95;3.15;;;;;;;10.62;100.00;102306.66;5241351;28;20085;-71
2023/05/29 04:26:33;;;;;;;22.50;4.07;;;;;;;10.62;100.00;102306.66;5243572;28;20024;-70
2023/05/29 04:29:04;;;;;;;18.27;5.00;;;;;;;10.58;100.00;102306.06;5243900;28;20543;-71
2023/05/29 04:31:36;;;;;;;19.83;4.30;;;;;;;10.62;100.00;102304.81;5231874;28;20372;-71
2023/05/29 04:34:07;;;;;;;13.40;3.08;;;;;;;10.63;100.00;102300.31;5242878;28;20078;-71
2023/05/29 04:36:38;;;;;;;12.88;3.38;;;;;;;10.61;100.00;102297.75;5243209;28;20037;-71
2023/05/29 04:39:09;;;;;;;21.00;3.45;;;;;;;10.69;100.00;102315.03;5244051;28;20384;-70
2023/05/29 04:41:40;;;;;;;21.00;3.22;;;;;;;10.73;100.00;102314.63;5243717;28;20021;-71
2023/05/29 04:44:11;;;;;;;18.85;3.67;;;;;;;10.76;100.00;102318.91;5244003;28;20258;-71
2023/05/29 04:46:43;;;;;;;16.88;3.17;;;;;;;10.77;100.00;102334.03;5238121;28;20502;-71
2023/05/29 04:49:14;;;;;;;13.55;3.17;;;;;;;10.82;100.00;102331.81;5236999;28;20396;-71
2023/05/29 04:51:46;;;;;;;22.30;3.50;;;;;;;10.85;100.00;102334.22;5230719;28;20033;-72
2023/05/29 04:54:17;;;;;;;18.80;3.97;;;;;;;10.85;100.00;102329.72;5232320;28;20278;-71
2023/05/29 04:56:47;;;;;;;14.27;3.47;;;;;;;10.89;100.00;102323.09;5245840;28;20020;-71
2023/05/29 04:59:18;;;;;;;14.70;3.63;;;;;;;10.91;100.00;102336.38;5234324;28;20100;-71
2023/05/29 05:01:48;;;;;;;20.88;5.05;;;;;;;10.98;100.00;102339.38;5240655;28;20033;-71
2023/05/29 05:04:19;;;;;;;15.80;3.63;;;;;;;11.02;100.00;102347.03;5228756;28;20033;-72
2023/05/29 05:06:51;;;;;;;16.40;3.42;;;;;;;11.05;100.00;102340.56;5227771;28;20032;-71
2023/05/29 05:09:21;;;;;;;19.35;4.95;;;;;;;11.09;100.00;102341.97;5230154;28;20039;-71
2023/05/29 05:11:52;;;;;;;23.73;4.63;;;;;;;11.13;100.00;102346.94;5237726;28;20371;-71
2023/05/29 05:14:22;;;;;;;22.38;4.13;;;;;;;11.13;100.00;102346.94;5228687;28;20364;-71
2023/05/29 05:16:53;;;;;;;20.83;3.58;;;;;;;11.20;100.00;102351.81;5237615;28;20086;-71
2023/05/29 05:19:23;;;;;;;19.13;3.38;;;;;;;11.24;100.00;102353.22;5233751;28;20051;-72
2023/05/29 05:21:54;;;;;;;14.90;3.33;;;;;;;11.30;100.00;102345.50;5235517;28;20052;-71
2023/05/29 05:24:24;;;;;;;17.90;3.65;;;;;;;11.35;100.00;102354.00;5246481;28;20029;-71
2023/05/29 05:26:55;;;;;;;17.35;4.50;;;;;;;11.39;100.00;102346.50;5232679;28;20029;-71
2023/05/29 05:29:25;;;;;;;17.63;3.95;;;;;;;11.44;100.00;102351.47;5226797;28;20552;-72
2023/05/29 05:31:56;;;;;;;19.58;3.58;;;;;;;11.45;100.00;102348.69;5239697;28;20024;-71
2023/05/29 05:34:26;;;;;;;29.02;4.65;;;;;;;11.53;100.00;102356.91;5236899;28;20094;-71
2023/05/29 05:36:57;;;;;;;32.33;5.13;;;;;;;11.63;100.00;102356.94;5229173;28;20033;-71
2023/05/29 05:39:27;;;;;;;17.75;3.47;;;;;;;11.68;100.00;102363.59;5238046;28;20024;-72
2023/05/29 05:41:58;;;;;;;23.25;4.03;;;;;;;11.75;100.00;102352.31;5246798;28;20024;-71
2023/05/29 05:44:28;;;;;;;18.73;3.13;;;;;;;11.85;100.00;102359.44;5246925;28;20494;-72
2023/05/29 05:46:59;;;;;;;20.60;3.90;;;;;;;11.99;100.00;102378.84;5232680;28;20031;-71
2023/05/29 05:49:29;;;;;;;19.15;3.88;;;;;;;12.11;100.00;102372.38;5246339;28;20099;-71
2023/05/29 05:52:00;;;;;;;22.90;4.47;;;;;;;12.19;100.00;102373.34;5226281;28;20021;-71
2023/05/29 05:54:30;;;;;;;30.08;4.45;;;;;;;12.38;100.00;102369.84;5241186;28;20142;-71
2023/05/29 05:57:02;;;;;;;27.33;4.13;;;;;;;12.77;100.00;102369.84;5237613;28;20013;-71
2023/05/29 05:59:33;;;;;;;15.65;3.53;;;;;;;13.40;100.00;102372.84;5234964;28;20020;-72
2023/05/29 06:02:04;;;;;;;11.60;3.65;;;;;;;13.97;100.00;102372.69;5234020;28;20032;-71
2023/05/29 06:04:34;;;;;;;19.25;3.53;;;;;;;14.53;100.00;102371.59;5241329;28;20111;-72
2023/05/29 06:07:06;;;;;;;16.67;3.30;;;;;;;15.00;100.00;102374.00;5244050;28;20150;-72
2023/05/29 06:09:37;;;;;;;18.70;4.03;;;;;;;15.48;100.00;102373.44;5239095;28;20182;-72
2023/05/29 06:12:08;;;;;;;14.80;3.20;;;;;;;15.87;100.00;102372.97;5224134;28;20367;-72
2023/05/29 06:14:38;;;;;;;12.82;3.45;;;;;;;16.21;100.00;102372.88;5245247;28;20028;-72
2023/05/29 06:17:10;;;;;;;18.67;3.58;;;;;;;16.48;100.00;102376.31;5244239;28;20408;-72
2023/05/29 06:19:41;;;;;;;16.73;3.53;;;;;;;16.58;100.00;102375.13;5245103;28;20024;-73
2023/05/29 06:22:11;;;;;;;15.75;3.60;;;;;;;16.79;100.00;102382.78;5232668;28;20029;-72
2023/05/29 06:24:42;;;;;;;13.85;3.58;;;;;;;17.04;100.00;102385.47;5235175;28;20017;-72
2023/05/29 06:27:12;;;;;;;18.80;3.63;;;;;;;17.45;100.00;102388.94;5226492;28;20474;-72
2023/05/29 06:29:43;;;;;;;13.50;2.97;;;;;;;17.55;100.00;102397.72;5234303;28;20027;-72
2023/05/29 06:32:13;;;;;;;12.13;3.58;;;;;;;17.62;100.00;102392.47;5241907;28;20074;-72
2023/05/29 06:34:44;;;;;;;23.55;4.05;;;;;;;17.48;100.00;102382.34;5244928;28;20032;-72
2023/05/29 06:37:15;;;;;;;18.23;3.60;;;;;;;17.51;100.00;102376.53;5243208;28;20024;-72
2023/05/29 06:39:46;;;;;;;16.55;2.70;;;;;;;17.69;100.00;102379.03;5244688;28;20036;-72
2023/05/29 06:42:16;;;;;;;19.15;3.63;;;;;;;17.60;100.00;102375.50;5244247;28;20462;-72
2023/05/29 06:44:46;;;;;;;10.98;3.17;;;;;;;17.82;100.00;102388.34;5244457;28;20078;-72
2023/05/29 06:47:17;;;;;;;17.80;3.28;;;;;;;17.90;100.00;102387.44;5243831;28;20008;-72
2023/05/29 06:49:47;;;;;;;17.63;3.55;;;;;;;18.08;100.00;102387.19;5226180;28;20054;-72
2023/05/29 06:52:18;;;;;;;16.55;3.40;;;;;;;18.38;100.00;102394.47;5244291;28;20394;-72
2023/05/29 06:54:48;;;;;;;12.27;3.35;;;;;;;18.45;100.00;102396.44;5241453;28;20096;-72
2023/05/29 06:57:19;;;;;;;15.05;3.28;;;;;;;18.21;100.00;102403.72;5232859;28;20381;-72
2023/05/29 06:59:50;;;;;;;12.13;3.25;;;;;;;18.10;100.00;102398.69;5244169;28;20047;-72
2023/05/29 07:02:20;;;;;;;19.05;3.50;;;;;;;18.15;100.00;102395.47;5243609;28;20379;-72
2023/05/29 07:04:51;;;;;;;13.75;3.40;;;;;;;18.32;100.00;102397.91;5239562;28;20102;-72
2023/05/29 07:07:22;;;;;;;14.10;3.80;;;;;;;18.46;100.00;102392.69;5217266;28;20027;-73
2023/05/29 07:09:52;;;;;;;15.10;3.10;;;;;;;18.52;100.00;102390.09;5230530;28;20477;-73
2023/05/29 07:12:23;;;;;;;14.27;3.50;;;;;;;18.35;100.00;102391.25;5244398;28;20035;-72
2023/05/29 07:14:53;;;;;;;24.02;4.55;;;;;;;18.41;100.00;102392.41;5236173;28;20032;-72
2023/05/29 07:17:24;;;;;;;10.85;2.95;;;;;;;18.81;100.00;102396.69;5235301;28;20029;-74
2023/05/29 07:19:55;;;;;;;16.27;3.42;;;;;;;18.81;100.00;102396.69;5232389;28;20425;-72
2023/05/29 07:22:25;;;;;;;14.68;3.40;;;;;;;19.30;100.00;102391.63;5233088;28;20475;-72
2023/05/29 07:24:56;;;;;;;20.70;3.42;;;;;;;19.56;100.00;102396.59;5223382;28;20028;-72
2023/05/29 07:27:27;;;;;;;10.95;2.45;;;;;;;19.84;100.00;102399.53;5235075;28;20021;-72
2023/05/29 07:29:57;;;;;;;14.82;3.03;;;;;;;20.15;100.00;102404.72;5222981;28;20529;-73
2023/05/29 07:32:28;;;;;;;18.33;3.42;;;;;;;20.25;100.00;102404.44;5229271;28;20028;-72
2023/05/29 07:34:58;;;;;;;13.25;3.00;;;;;;;20.27;100.00;102401.50;5243724;28;20008;-72
2023/05/29 07:37:30;;;;;;;8.65;2.95;;;;;;;20.48;100.00;102395.25;5242130;28;20353;-73
2023/05/29 07:40:00;;;;;;;12.43;2.53;;;;;;;20.14;100.00;102391.31;5243198;28;20028;-73
2023/05/29 07:42:32;;;;;;;15.48;3.65;;;;;;;20.11;100.00;102397.13;5243390;28;20103;-73
2023/05/29 07:45:03;;;;;;;12.90;3.33;;;;;;;19.94;100.00;102398.41;5243300;28;20470;-73
2023/05/29 07:47:33;;;;;;;14.63;2.97;;;;;;;20.26;100.00;102392.47;5242347;28;20118;-72
2023/05/29 07:50:05;;;;;;;9.27;2.90;;;;;;;20.55;100.00;102390.72;5242631;28;20040;-73
2023/05/29 07:52:36;;;;;;;13.18;3.33;;;;;;;20.19;100.00;102397.03;5243036;28;20024;-73
2023/05/29 07:55:07;;;;;;;13.57;2.83;;;;;;;20.52;100.00;102404.72;5237002;28;20432;-73
2023/05/29 07:57:39;;;;;;;13.88;3.40;;;;;;;20.31;100.00;102400.91;5222309;28;20029;-73
2023/05/29 08:00:12;;;;;;;14.10;3.20;;;;;;;20.35;100.00;102404.97;5222920;28;20132;-73
2023/05/29 08:02:43;;;;;;;13.60;3.67;;;;;;;20.08;100.00;102397.50;5222891;28;20406;-73
2023/05/29 08:05:13;;;;;;;15.85;3.42;;;;;;;20.27;100.00;102396.06;5223098;28;20104;-73
2023/05/29 08:07:44;;;;;;;18.38;3.85;;;;;;;20.26;100.00;102402.53;5221937;28;20785;-73
2023/05/29 08:10:15;;;;;;;14.57;3.03;;;;;;;20.40;100.00;102404.38;5222642;28;20036;-73
2023/05/29 08:12:45;;;;;;;13.93;3.28;;;;;;;20.61;100.00;102390.78;5222749;28;20037;-73
2023/05/29 08:15:16;;;;;;;12.73;3.50;;;;;;;20.66;100.00;102388.31;5221759;28;20013;-73
2023/05/29 08:17:46;;;;;;;13.25;3.63;;;;;;;20.40;100.00;102401.66;5221773;28;20070;-73
2023/05/29 08:20:17;;;;;;;16.38;3.00;;;;;;;20.48;100.00;102393.34;5231991;28;20033;-73
2023/05/29 08:22:47;;;;;;;13.40;2.83;;;;;;;20.72;100.00;102399.47;5240044;28;20128;-73
2023/05/29 08:25:18;;;;;;;15.35;3.25;;;;;;;20.65;100.00;102400.25;5229250;28;20440;-73
2023/05/29 08:27:48;;;;;;;15.35;3.72;;;;;;;20.71;100.00;102397.78;5239934;28;20078;-73
2023/05/29 08:30:20;;;;;;;25.05;3.83;;;;;;;20.84;100.00;102403.38;5244921;28;20016;-73
2023/05/29 08:32:50;;;;;;;11.07;2.90;;;;;;;21.14;100.00;102406.75;5244165;28;20458;-73
2023/05/29 08:35:22;;;;;;;11.77;2.88;;;;;;;21.42;100.00;102406.75;5256146;28;20020;-73
2023/05/29 08:37:52;;;;;;;17.92;3.70;;;;;;;21.36;100.00;102404.84;5239907;28;20477;-73
2023/05/29 08:40:23;;;;;;;16.95;3.40;;;;;;;21.48;100.00;102400.47;5246260;28;20024;-73
2023/05/29 08:42:59;;;;;;;18.67;3.65;;;;;;;21.62;100.00;102399.53;5245456;28;20485;-73
2023/05/29 08:45:32;;;;;;;13.15;3.10;;;;;;;21.76;100.00;102413.25;5246286;28;20046;-74
2023/05/29 08:48:04;;;;;;;18.73;3.83;;;;;;;21.79;100.00;102408.25;5240013;28;20020;-73
2023/05/29 08:50:35;;;;;;;15.55;4.03;;;;;;;21.94;100.00;102411.66;5248743;28;20107;-73
2023/05/29 08:53:06;;;;;;;15.27;3.28;;;;;;;22.17;100.00;102411.34;5247162;28;20077;-73
2023/05/29 08:55:36;;;;;;;16.27;3.13;;;;;;;22.46;96.40;102415.63;5247004;28;20197;-73
2023/05/29 08:58:08;;;;;;;16.98;3.15;;;;;;;21.67;100.00;102416.13;5239677;28;20031;-73
2023/05/29 09:00:40;;;;;;;16.13;3.00;;;;;;;21.53;100.00;102416.25;5248301;28;20032;-73
2023/05/29 09:03:11;;;;;;;13.20;3.30;;;;;;;21.79;100.00;102421.03;5240993;28;20025;-73
2023/05/29 09:05:43;;;;;;;21.33;3.60;;;;;;;22.08;100.00;102411.69;5242591;28;20405;-73
2023/05/29 09:08:14;;;;;;;21.40;3.50;;;;;;;22.29;100.00;102416.22;5243173;28;20016;-73
2023/05/29 09:10:45;;;;;;;17.77;3.10;;;;;;;22.06;100.00;102419.28;5237900;28;20489;-73
2023/05/29 09:13:15;;;;;;;13.68;2.92;;;;;;;22.18;100.00;102420.38;5241300;28;20020;-73
2023/05/29 09:15:46;;;;;;;14.85;3.42;;;;;;;22.14;100.00;102419.97;5239560;28;20031;-73
2023/05/29 09:18:17;;;;;;;14.32;3.00;;;;;;;22.24;99.33;102422.31;5244478;28;20035;-73
2023/05/29 09:20:48;;;;;;;18.88;3.47;;;;;;;22.13;100.00;102426.47;5242210;28;20036;-73
2023/05/29 09:23:18;;;;;;;11.45;2.78;;;;;;;22.24;92.21;102419.59;5252376;28;20041;-73
2023/05/29 09:25:53;;;;;;;14.20;3.40;;;;;;;21.69;100.00;102413.22;5251723;28;20028;-73
2023/05/29 09:28:25;;;;;;;16.10;2.97;;;;;;;21.89;100.00;102419.63;5240984;28;20016;-73
2023/05/29 09:30:56;;;;;;;14.00;3.17;;;;;;;22.05;100.00;102423.06;5251737;28;20070;-73
2023/05/29 09:33:27;;;;;;;16.67;2.97;;;;;;;22.16;97.98;102420.59;5240451;28;20464;-73
2023/05/29 09:35:59;;;;;;;16.13;2.92;;;;;;;22.39;94.98;102425.72;5239697;28;20025;-73
2023/05/29 09:38:30;;;;;;;15.07;3.00;;;;;;;22.38;100.00;102429.47;5240029;28;20127;-73
2023/05/29 09:41:05;;;;;;;12.10;2.85;;;;;;;22.13;90.79;102429.19;5247484;28;20020;-73
2023/05/29 09:43:39;;;;;;;13.50;3.10;;;;;;;22.18;99.72;102423.13;5244718;28;20021;-73
2023/05/29 09:46:16;;;;;;;14.35;2.92;;;;;;;22.44;100.00;102422.34;5247382;28;20424;-73
2023/05/29 09:48:48;;;;;;;12.70;3.03;;;;;;;22.54;94.99;102421.94;5252350;28;20027;-73
2023/05/29 09:51:34;;;;;;;12.57;2.83;;;;;;;22.66;93.86;102431.25;5243586;28;20017;-73
2023/05/29 09:54:16;;;;;;;11.50;3.10;;;;;;;22.77;94.36;102433.34;5244045;28;20025;-73
2023/05/29 09:56:47;;;;;;;11.73;3.03;;;;;;;22.85;91.15;102430.41;5246418;28;20082;-73
2023/05/29 09:59:18;;;;;;;10.70;2.80;;;;;;;22.72;87.69;102433.97;5242963;28;20028;-73
2023/05/29 10:01:49;;;;;;;12.93;3.38;;;;;;;22.62;85.35;102419.03;5252945;28;20021;-74
2023/05/29 10:04:20;;;;;;;9.13;2.15;;;;;;;22.66;92.12;102423.88;5245540;28;20078;-73
2023/05/29 10:06:51;;;;;;;15.43;3.83;;;;;;;22.84;89.36;102419.66;5254617;28;20096;-73
2023/05/29 10:09:26;;;;;;;19.90;3.15;;;;;;;22.79;91.35;102424.91;5246599;28;20394;-73
2023/05/29 10:12:02;;;;;;;11.57;3.17;;;;;;;22.50;93.04;102416.06;5253243;28;20082;-73
2023/05/29 10:14:33;;;;;;;14.73;3.25;;;;;;;22.50;91.96;102413.34;5248116;28;20016;-73
2023/05/29 10:17:08;;;;;;;19.65;2.92;;;;;;;22.48;91.16;102421.72;5262373;28;20035;-73
2023/05/29 10:19:38;;;;;;;10.15;2.63;;;;;;;22.32;88.15;102418.53;5243391;28;20028;-73
2023/05/29 10:22:10;;;;;;;8.30;2.50;;;;;;;22.54;91.08;102414.59;5242147;28;20017;-73
2023/05/29 10:24:40;;;;;;;11.25;2.80;;;;;;;22.52;93.05;102421.31;5254709;28;20458;-73
2023/05/29 10:27:11;;;;;;;16.05;2.88;;;;;;;22.75;92.11;102419.06;5242458;28;20229;-73
2023/05/29 10:29:53;;;;;;;6.82;2.28;;;;;;;22.85;86.42;102413.16;5259114;28;20026;-73
2023/05/29 10:32:50;;;;;;;7.63;2.60;;;;;;;23.05;92.80;102402.25;5245000;28;20095;-73
2023/05/29 10:35:31;;;;;;;13.00;2.75;;;;;;;23.25;90.77;102411.28;5239814;28;20036;-73
2023/05/29 10:38:24;;;;;;;10.18;2.45;;;;;;;22.95;82.48;102419.94;5240839;28;20492;-74
2023/05/29 10:40:54;;;;;;;10.63;2.65;;;;;;;22.40;85.47;102415.63;5251180;28;20405;-73
2023/05/29 10:43:44;;;;;;;11.70;3.13;;;;;;;22.54;92.33;102419.22;5241644;28;20029;-73
2023/05/29 10:46:14;;;;;;;12.18;2.85;;;;;;;22.70;92.82;102419.66;5251272;28;20480;-73
2023/05/29 10:48:49;;;;;;;13.10;2.88;;;;;;;22.64;90.64;102415.03;5245063;28;20111;-73
2023/05/29 10:51:25;;;;;;;11.98;2.97;;;;;;;22.83;90.39;102407.88;5243440;28;20023;-73
2023/05/29 10:53:56;;;;;;;15.10;2.60;;;;;;;22.89;92.95;102401.63;5241514;28;20024;-73
2023/05/29 10:56:29;;;;;;;15.98;3.08;;;;;;;22.94;94.80;102411.91;5246853;28;20023;-73
2023/05/29 10:59:02;;;;;;;12.63;2.55;;;;;;;22.98;92.33;102403.06;5246030;28;20431;-73
2023/05/29 11:01:32;;;;;;;14.25;3.15;;;;;;;23.03;91.10;102413.38;5247896;28;20382;-73
2023/05/29 11:04:15;;;;;;;8.63;2.85;;;;;;;22.99;87.33;102396.56;5241836;28;20024;-73
2023/05/29 11:06:46;;;;;;;12.27;2.65;;;;;;;22.98;85.17;102408.53;5240782;28;20037;-74
2023/05/29 11:09:31;;;;;;;9.98;2.65;;;;;;;22.77;84.64;102392.31;5242297;28;20020;-73
2023/05/29 11:12:35;;;;;;;11.30;3.20;;;;;;;23.02;89.39;102391.72;5250734;28;20328;-73
2023/05/29 11:15:10;;;;;;;10.80;2.80;;;;;;;23.09;90.45;102393.38;5245863;28;20464;-73
2023/05/29 11:18:00;;;;;;;;;;;;;;;23.12;85.02;102392.13;5255797;28;20464;-73
2023/05/29 11:20:54;;;;;;;12.77;3.28;;;;;;;23.26;84.06;102396.53;5241241;28;19919;-75
2023/05/29 11:23:31;;;;;;;8.32;2.67;;;;;;;23.34;88.64;102382.59;5241992;28;20107;-73
2023/05/29 11:26:03;;;;;;;11.55;3.10;;;;;;;23.19;91.19;102382.00;5244288;28;20030;-73
2023/05/29 11:28:33;;;;;;;12.27;3.10;;;;;;;23.39;85.92;102382.78;5251047;28;20028;-73
2023/05/29 11:31:08;;;;;;;9.52;2.80;;;;;;;23.57;86.25;102376.63;5244086;28;20078;-73
2023/05/29 11:33:41;;;;;;;11.25;2.72;;;;;;;23.74;85.15;102383.34;5246859;28;20055;-73
2023/05/29 11:36:12;;;;;;;11.70;2.97;;;;;;;23.74;79.78;102393.47;5256181;28;20102;-73
2023/05/29 11:38:42;;;;;;;8.68;2.65;;;;;;;23.88;83.35;102392.34;5247950;28;20081;-73